sensor_id;sensor_type;location;lat;lon;timestamp;P1;durP1;ratioP1;P2;durP2;ratioP2
36371;SDS011;22398;51.346;12.372;2023-02-11T00:00:05;32.85;;;14.98;;
36371;SDS011;22398;51.346;12.372;2023-02-11T00:05:09;35.72;;;15.80;;
36371;SDS011;22398;51.346;12.372;2023-02-11T00:10:13;34.97;;;14.52;;
36371;SDS011;22398;51.346;12.372;2023-02-11T00:15:18;40.97;;;15.73;;
36371;SDS011;22398;51.346;12.372;2023-02-11T00:20:21;31.92;;;14.55;;
36371;SDS011;22398;51.346;12.372;2023-02-11T00:25:25;36.83;;;14.15;;
36371;SDS011;22398;51.346;12.372;2023-02-11T00:30:30;39.45;;;16.45;;
36371;SDS011;22398;51.346;12.372;2023-02-11T00:35:35;39.37;;;16.13;;
36371;SDS011;22398;51.346;12.372;2023-02-11T00:40:41;33.83;;;14.80;;
36371;SDS011;22398;51.346;12.372;2023-02-11T00:45:46;35.67;;;14.82;;
36371;SDS011;22398;51.346;12.372;2023-02-11T00:50:50;36.83;;;14.57;;
36371;SDS011;22398;51.346;12.372;2023-02-11T00:55:54;37.17;;;14.40;;
36371;SDS011;22398;51.346;12.372;2023-02-11T01:01:00;29.55;;;14.25;;
36371;SDS011;22398;51.346;12.372;2023-02-11T01:06:04;36.85;;;14.70;;
36371;SDS011;22398;51.346;12.372;2023-02-11T01:11:12;38.95;;;14.25;;
36371;SDS011;22398;51.346;12.372;2023-02-11T01:16:20;43.10;;;15.93;;
36371;SDS011;22398;51.346;12.372;2023-02-11T01:21:26;39.60;;;15.52;;
36371;SDS011;22398;51.346;12.372;2023-02-11T01:26:30;37.95;;;15.07;;
36371;SDS011;22398;51.346;12.372;2023-02-11T01:31:35;31.55;;;14.90;;
36371;SDS011;22398;51.346;12.372;2023-02-11T01:36:38;34.10;;;14.03;;
36371;SDS011;22398;51.346;12.372;2023-02-11T01:41:42;35.83;;;14.90;;
36371;SDS011;22398;51.346;12.372;2023-02-11T01:46:47;30.83;;;14.40;;
36371;SDS011;22398;51.346;12.372;2023-02-11T01:51:54;34.05;;;14.23;;
36371;SDS011;22398;51.346;12.372;2023-02-11T01:57:02;34.92;;;14.13;;
36371;SDS011;22398;51.346;12.372;2023-02-11T02:02:28;37.55;;;15.23;;
36371;SDS011;22398;51.346;12.372;2023-02-11T02:07:38;33.92;;;14.48;;
36371;SDS011;22398;51.346;12.372;2023-02-11T02:12:46;33.20;;;13.45;;
36371;SDS011;22398;51.346;12.372;2023-02-11T02:17:55;34.65;;;13.32;;
36371;SDS011;22398;51.346;12.372;2023-02-11T02:23:15;32.00;;;14.15;;
36371;SDS011;22398;51.346;12.372;2023-02-11T02:33:45;29.00;;;13.63;;
36371;SDS011;22398;51.346;12.372;2023-02-11T02:38:56;34.72;;;13.98;;
36371;SDS011;22398;51.346;12.372;2023-02-11T02:44:03;34.15;;;15.02;;
36371;SDS011;22398;51.346;12.372;2023-02-11T02:49:11;31.80;;;13.32;;
36371;SDS011;22398;51.346;12.372;2023-02-11T02:54:23;29.38;;;12.57;;
36371;SDS011;22398;51.346;12.372;2023-02-11T02:59:47;30.80;;;15.02;;
36371;SDS011;22398;51.346;12.372;2023-02-11T03:05:01;31.17;;;13.75;;
36371;SDS011;22398;51.346;12.372;2023-02-11T03:10:12;26.75;;;13.32;;
36371;SDS011;22398;51.346;12.372;2023-02-11T03:15:18;30.73;;;14.15;;
36371;SDS011;22398;51.346;12.372;2023-02-11T03:20:25;33.75;;;15.70;;
36371;SDS011;22398;51.346;12.372;2023-02-11T03:25:33;34.92;;;14.85;;
36371;SDS011;22398;51.346;12.372;2023-02-11T03:30:48;36.30;;;15.00;;
36371;SDS011;22398;51.346;12.372;2023-02-11T03:35:59;34.58;;;15.68;;
36371;SDS011;22398;51.346;12.372;2023-02-11T03:41:06;27.42;;;13.80;;
36371;SDS011;22398;51.346;12.372;2023-02-11T03:46:12;30.52;;;13.68;;
36371;SDS011;22398;51.346;12.372;2023-02-11T03:51:21;35.55;;;14.93;;
36371;SDS011;22398;51.346;12.372;2023-02-11T03:56:27;30.23;;;14.07;;
36371;SDS011;22398;51.346;12.372;2023-02-11T04:01:33;31.10;;;13.85;;
36371;SDS011;22398;51.346;12.372;2023-02-11T04:06:38;33.67;;;14.90;;
36371;SDS011;22398;51.346;12.372;2023-02-11T04:11:42;34.70;;;14.18;;
36371;SDS011;22398;51.346;12.372;2023-02-11T04:16:45;34.30;;;14.38;;
36371;SDS011;22398;51.346;12.372;2023-02-11T04:21:50;35.45;;;12.93;;
36371;SDS011;22398;51.346;12.372;2023-02-11T04:26:53;35.33;;;14.85;;
36371;SDS011;22398;51.346;12.372;2023-02-11T04:31:57;34.33;;;15.07;;
36371;SDS011;22398;51.346;12.372;2023-02-11T04:37:02;32.03;;;14.38;;
36371;SDS011;22398;51.346;12.372;2023-02-11T04:42:05;35.07;;;15.80;;
36371;SDS011;22398;51.346;12.372;2023-02-11T04:47:09;35.97;;;15.02;;
36371;SDS011;22398;51.346;12.372;2023-02-11T04:52:15;36.95;;;15.40;;
36371;SDS011;22398;51.346;12.372;2023-02-11T04:57:19;28.60;;;13.00;;
36371;SDS011;22398;51.346;12.372;2023-02-11T05:02:22;37.00;;;15.52;;
36371;SDS011;22398;51.346;12.372;2023-02-11T05:07:27;38.13;;;15.60;;
36371;SDS011;22398;51.346;12.372;2023-02-11T05:12:31;31.33;;;15.38;;
36371;SDS011;22398;51.346;12.372;2023-02-11T05:17:34;38.55;;;16.08;;
36371;SDS011;22398;51.346;12.372;2023-02-11T05:22:39;34.17;;;14.68;;
36371;SDS011;22398;51.346;12.372;2023-02-11T05:27:42;35.83;;;15.47;;
36371;SDS011;22398;51.346;12.372;2023-02-11T05:32:46;31.90;;;14.68;;
36371;SDS011;22398;51.346;12.372;2023-02-11T05:37:50;37.05;;;16.13;;
36371;SDS011;22398;51.346;12.372;2023-02-11T05:42:54;34.95;;;14.95;;
36371;SDS011;22398;51.346;12.372;2023-02-11T05:47:57;34.33;;;14.70;;
36371;SDS011;22398;51.346;12.372;2023-02-11T05:53:02;34.92;;;14.52;;
36371;SDS011;22398;51.346;12.372;2023-02-11T05:58:07;40.13;;;17.45;;
36371;SDS011;22398;51.346;12.372;2023-02-11T06:03:11;36.42;;;15.25;;
36371;SDS011;22398;51.346;12.372;2023-02-11T06:08:16;40.58;;;16.13;;
36371;SDS011;22398;51.346;12.372;2023-02-11T06:13:20;35.15;;;16.15;;
36371;SDS011;22398;51.346;12.372;2023-02-11T06:18:24;32.42;;;16.45;;
36371;SDS011;22398;51.346;12.372;2023-02-11T06:23:28;38.92;;;16.88;;
36371;SDS011;22398;51.346;12.372;2023-02-11T06:28:32;43.33;;;18.23;;
36371;SDS011;22398;51.346;12.372;2023-02-11T06:33:36;39.05;;;17.13;;
36371;SDS011;22398;51.346;12.372;2023-02-11T06:38:41;38.40;;;17.70;;
36371;SDS011;22398;51.346;12.372;2023-02-11T06:43:47;40.13;;;17.70;;
36371;SDS011;22398;51.346;12.372;2023-02-11T06:48:50;43.30;;;18.27;;
36371;SDS011;22398;51.346;12.372;2023-02-11T06:53:55;42.80;;;18.67;;
36371;SDS011;22398;51.346;12.372;2023-02-11T06:58:59;40.40;;;15.87;;
36371;SDS011;22398;51.346;12.372;2023-02-11T07:04:03;38.70;;;16.75;;
36371;SDS011;22398;51.346;12.372;2023-02-11T07:09:09;45.90;;;18.67;;
36371;SDS011;22398;51.346;12.372;2023-02-11T07:14:12;44.93;;;18.40;;
36371;SDS011;22398;51.346;12.372;2023-02-11T07:19:16;43.22;;;18.58;;
36371;SDS011;22398;51.346;12.372;2023-02-11T07:24:21;37.70;;;17.48;;
36371;SDS011;22398;51.346;12.372;2023-02-11T07:29:25;42.90;;;19.55;;
36371;SDS011;22398;51.346;12.372;2023-02-11T07:34:29;40.97;;;17.33;;
36371;SDS011;22398;51.346;12.372;2023-02-11T07:39:34;47.28;;;19.23;;
36371;SDS011;22398;51.346;12.372;2023-02-11T07:44:37;46.42;;;20.05;;
36371;SDS011;22398;51.346;12.372;2023-02-11T07:49:41;36.78;;;17.30;;
36371;SDS011;22398;51.346;12.372;2023-02-11T07:54:46;40.35;;;18.15;;
36371;SDS011;22398;51.346;12.372;2023-02-11T07:59:50;48.40;;;19.83;;
36371;SDS011;22398;51.346;12.372;2023-02-11T08:04:55;45.10;;;17.80;;
36371;SDS011;22398;51.346;12.372;2023-02-11T08:10:00;43.13;;;18.40;;
36371;SDS011;22398;51.346;12.372;2023-02-11T08:15:03;46.70;;;18.40;;
36371;SDS011;22398;51.346;12.372;2023-02-11T08:20:08;41.00;;;16.90;;
36371;SDS011;22398;51.346;12.372;2023-02-11T08:25:14;45.45;;;19.60;;
36371;SDS011;22398;51.346;12.372;2023-02-11T08:30:17;46.10;;;18.50;;
36371;SDS011;22398;51.346;12.372;2023-02-11T08:35:21;42.83;;;18.83;;
36371;SDS011;22398;51.346;12.372;2023-02-11T08:40:28;40.05;;;18.80;;
36371;SDS011;22398;51.346;12.372;2023-02-11T08:45:31;46.53;;;20.00;;
36371;SDS011;22398;51.346;12.372;2023-02-11T08:50:37;41.40;;;17.38;;
36371;SDS011;22398;51.346;12.372;2023-02-11T08:55:48;40.53;;;17.63;;
36371;SDS011;22398;51.346;12.372;2023-02-11T09:00:52;33.58;;;16.70;;
36371;SDS011;22398;51.346;12.372;2023-02-11T09:05:56;42.05;;;18.50;;
36371;SDS011;22398;51.346;12.372;2023-02-11T09:11:01;32.58;;;17.10;;
36371;SDS011;22398;51.346;12.372;2023-02-11T09:16:06;40.53;;;16.83;;
36371;SDS011;22398;51.346;12.372;2023-02-11T09:21:10;45.25;;;18.80;;
36371;SDS011;22398;51.346;12.372;2023-02-11T09:26:16;39.55;;;18.23;;
36371;SDS011;22398;51.346;12.372;2023-02-11T09:31:21;40.97;;;19.05;;
36371;SDS011;22398;51.346;12.372;2023-02-11T09:36:28;36.72;;;17.13;;
36371;SDS011;22398;51.346;12.372;2023-02-11T09:41:38;49.63;;;18.13;;
36371;SDS011;22398;51.346;12.372;2023-02-11T09:46:52;44.10;;;18.08;;
36371;SDS011;22398;51.346;12.372;2023-02-11T09:52:01;42.80;;;18.55;;
36371;SDS011;22398;51.346;12.372;2023-02-11T09:57:09;38.90;;;17.30;;
36371;SDS011;22398;51.346;12.372;2023-02-11T10:02:30;35.67;;;18.48;;
36371;SDS011;22398;51.346;12.372;2023-02-11T10:07:45;40.47;;;17.60;;
36371;SDS011;22398;51.346;12.372;2023-02-11T10:12:59;38.88;;;16.63;;
36371;SDS011;22398;51.346;12.372;2023-02-11T10:18:32;35.38;;;16.65;;
36371;SDS011;22398;51.346;12.372;2023-02-11T10:23:47;36.83;;;17.53;;
36371;SDS011;22398;51.346;12.372;2023-02-11T10:28:55;35.88;;;17.10;;
36371;SDS011;22398;51.346;12.372;2023-02-11T10:34:04;31.73;;;16.48;;
36371;SDS011;22398;51.346;12.372;2023-02-11T10:39:10;33.47;;;16.45;;
36371;SDS011;22398;51.346;12.372;2023-02-11T10:44:20;37.40;;;17.33;;
36371;SDS011;22398;51.346;12.372;2023-02-11T10:49:37;37.88;;;16.60;;
36371;SDS011;22398;51.346;12.372;2023-02-11T10:54:50;40.45;;;17.85;;
36371;SDS011;22398;51.346;12.372;2023-02-11T11:00:00;37.13;;;17.73;;
36371;SDS011;22398;51.346;12.372;2023-02-11T11:05:26;37.33;;;15.77;;
36371;SDS011;22398;51.346;12.372;2023-02-11T11:10:35;31.48;;;16.00;;
36371;SDS011;22398;51.346;12.372;2023-02-11T11:15:45;36.50;;;14.82;;
36371;SDS011;22398;51.346;12.372;2023-02-11T11:20:54;35.70;;;16.95;;
36371;SDS011;22398;51.346;12.372;2023-02-11T11:26:01;32.50;;;16.48;;
36371;SDS011;22398;51.346;12.372;2023-02-11T11:31:12;29.98;;;14.68;;
36371;SDS011;22398;51.346;12.372;2023-02-11T11:36:20;31.38;;;14.52;;
36371;SDS011;22398;51.346;12.372;2023-02-11T11:41:26;34.05;;;15.30;;
36371;SDS011;22398;51.346;12.372;2023-02-11T11:46:34;38.92;;;17.48;;
36371;SDS011;22398;51.346;12.372;2023-02-11T11:51:41;39.97;;;15.73;;
36371;SDS011;22398;51.346;12.372;2023-02-11T11:56:50;35.20;;;17.98;;
36371;SDS011;22398;51.346;12.372;2023-02-11T12:02:09;32.10;;;16.35;;
36371;SDS011;22398;51.346;12.372;2023-02-11T12:07:34;36.00;;;16.42;;
36371;SDS011;22398;51.346;12.372;2023-02-11T12:12:52;28.90;;;15.52;;
36371;SDS011;22398;51.346;12.372;2023-02-11T12:18:08;39.53;;;16.13;;
36371;SDS011;22398;51.346;12.372;2023-02-11T12:23:30;36.22;;;16.05;;
36371;SDS011;22398;51.346;12.372;2023-02-11T12:28:42;36.05;;;15.55;;
36371;SDS011;22398;51.346;12.372;2023-02-11T12:34:06;37.92;;;16.30;;
36371;SDS011;22398;51.346;12.372;2023-02-11T12:39:31;36.30;;;16.90;;
36371;SDS011;22398;51.346;12.372;2023-02-11T12:44:44;33.33;;;15.82;;
36371;SDS011;22398;51.346;12.372;2023-02-11T12:50:07;29.77;;;15.98;;
36371;SDS011;22398;51.346;12.372;2023-02-11T12:55:20;32.15;;;15.45;;
36371;SDS011;22398;51.346;12.372;2023-02-11T13:00:27;34.03;;;15.57;;
36371;SDS011;22398;51.346;12.372;2023-02-11T13:05:39;29.17;;;15.38;;
36371;SDS011;22398;51.346;12.372;2023-02-11T13:10:47;33.95;;;15.98;;
36371;SDS011;22398;51.346;12.372;2023-02-11T13:15:57;36.20;;;16.13;;
36371;SDS011;22398;51.346;12.372;2023-02-11T13:21:13;27.90;;;16.05;;
36371;SDS011;22398;51.346;12.372;2023-02-11T13:26:24;30.50;;;14.73;;
36371;SDS011;22398;51.346;12.372;2023-02-11T13:31:35;35.55;;;16.05;;
36371;SDS011;22398;51.346;12.372;2023-02-11T13:36:40;30.05;;;15.63;;
36371;SDS011;22398;51.346;12.372;2023-02-11T13:42:00;27.42;;;14.32;;
36371;SDS011;22398;51.346;12.372;2023-02-11T13:47:05;36.03;;;16.38;;
36371;SDS011;22398;51.346;12.372;2023-02-11T13:52:20;33.20;;;15.38;;
36371;SDS011;22398;51.346;12.372;2023-02-11T13:57:28;35.22;;;14.70;;
36371;SDS011;22398;51.346;12.372;2023-02-11T14:02:35;34.17;;;15.13;;
36371;SDS011;22398;51.346;12.372;2023-02-11T14:08:17;31.23;;;14.82;;
36371;SDS011;22398;51.346;12.372;2023-02-11T14:19:29;30.98;;;14.27;;
36371;SDS011;22398;51.346;12.372;2023-02-11T14:24:48;28.92;;;14.38;;
36371;SDS011;22398;51.346;12.372;2023-02-11T14:30:08;30.67;;;14.75;;
36371;SDS011;22398;51.346;12.372;2023-02-11T14:35:21;24.15;;;12.02;;
36371;SDS011;22398;51.346;12.372;2023-02-11T14:40:32;28.45;;;14.63;;
36371;SDS011;22398;51.346;12.372;2023-02-11T14:45:44;32.30;;;15.50;;
36371;SDS011;22398;51.346;12.372;2023-02-11T14:50:52;31.65;;;15.10;;
36371;SDS011;22398;51.346;12.372;2023-02-11T14:56:02;31.27;;;14.82;;
36371;SDS011;22398;51.346;12.372;2023-02-11T15:01:24;30.00;;;15.13;;
36371;SDS011;22398;51.346;12.372;2023-02-11T15:06:30;30.20;;;13.88;;
36371;SDS011;22398;51.346;12.372;2023-02-11T15:11:40;29.92;;;13.75;;
36371;SDS011;22398;51.346;12.372;2023-02-11T15:16:44;31.13;;;15.77;;
36371;SDS011;22398;51.346;12.372;2023-02-11T15:21:49;32.55;;;13.82;;
36371;SDS011;22398;51.346;12.372;2023-02-11T15:27:01;28.45;;;13.80;;
36371;SDS011;22398;51.346;12.372;2023-02-11T15:32:09;29.88;;;13.95;;
36371;SDS011;22398;51.346;12.372;2023-02-11T15:37:17;26.98;;;13.38;;
36371;SDS011;22398;51.346;12.372;2023-02-11T15:42:24;33.42;;;14.38;;
36371;SDS011;22398;51.346;12.372;2023-02-11T15:47:29;28.55;;;13.88;;
36371;SDS011;22398;51.346;12.372;2023-02-11T15:52:32;29.55;;;13.45;;
36371;SDS011;22398;51.346;12.372;2023-02-11T15:57:37;24.33;;;11.80;;
36371;SDS011;22398;51.346;12.372;2023-02-11T16:02:55;26.00;;;11.60;;
36371;SDS011;22398;51.346;12.372;2023-02-11T16:07:59;27.35;;;12.13;;
36371;SDS011;22398;51.346;12.372;2023-02-11T16:13:17;23.42;;;11.13;;
36371;SDS011;22398;51.346;12.372;2023-02-11T16:18:24;24.77;;;11.73;;
36371;SDS011;22398;51.346;12.372;2023-02-11T16:23:39;24.05;;;11.77;;
36371;SDS011;22398;51.346;12.372;2023-02-11T16:28:45;20.77;;;11.02;;
36371;SDS011;22398;51.346;12.372;2023-02-11T16:33:53;26.75;;;11.32;;
36371;SDS011;22398;51.346;12.372;2023-02-11T16:39:04;21.83;;;11.50;;
36371;SDS011;22398;51.346;12.372;2023-02-11T16:44:08;25.67;;;10.93;;
36371;SDS011;22398;51.346;12.372;2023-02-11T16:49:14;24.70;;;10.77;;
36371;SDS011;22398;51.346;12.372;2023-02-11T16:54:22;25.27;;;11.82;;
36371;SDS011;22398;51.346;12.372;2023-02-11T16:59:27;26.38;;;11.50;;
36371;SDS011;22398;51.346;12.372;2023-02-11T17:04:31;22.38;;;10.60;;
36371;SDS011;22398;51.346;12.372;2023-02-11T17:09:35;22.92;;;11.02;;
36371;SDS011;22398;51.346;12.372;2023-02-11T17:14:40;24.30;;;11.68;;
36371;SDS011;22398;51.346;12.372;2023-02-11T17:19:43;22.87;;;10.73;;
36371;SDS011;22398;51.346;12.372;2023-02-11T17:24:48;28.17;;;11.73;;
36371;SDS011;22398;51.346;12.372;2023-02-11T17:29:53;25.40;;;11.10;;
36371;SDS011;22398;51.346;12.372;2023-02-11T17:34:57;27.37;;;11.10;;
36371;SDS011;22398;51.346;12.372;2023-02-11T17:40:00;27.73;;;11.60;;
36371;SDS011;22398;51.346;12.372;2023-02-11T17:45:05;25.08;;;11.68;;
36371;SDS011;22398;51.346;12.372;2023-02-11T17:50:10;27.00;;;13.75;;
36371;SDS011;22398;51.346;12.372;2023-02-11T17:55:14;32.35;;;14.75;;
36371;SDS011;22398;51.346;12.372;2023-02-11T18:00:20;31.05;;;14.82;;
36371;SDS011;22398;51.346;12.372;2023-02-11T18:05:23;30.60;;;14.32;;
36371;SDS011;22398;51.346;12.372;2023-02-11T18:10:29;30.25;;;14.77;;
36371;SDS011;22398;51.346;12.372;2023-02-11T18:15:35;34.53;;;15.40;;
36371;SDS011;22398;51.346;12.372;2023-02-11T18:20:39;32.40;;;15.20;;
36371;SDS011;22398;51.346;12.372;2023-02-11T18:25:43;38.47;;;16.00;;
36371;SDS011;22398;51.346;12.372;2023-02-11T18:30:48;41.42;;;16.17;;
36371;SDS011;22398;51.346;12.372;2023-02-11T18:35:58;42.40;;;17.70;;
36371;SDS011;22398;51.346;12.372;2023-02-11T18:41:07;32.40;;;15.25;;
36371;SDS011;22398;51.346;12.372;2023-02-11T18:46:12;40.97;;;19.10;;
36371;SDS011;22398;51.346;12.372;2023-02-11T18:51:17;35.80;;;16.13;;
36371;SDS011;22398;51.346;12.372;2023-02-11T18:56:21;38.10;;;17.83;;
36371;SDS011;22398;51.346;12.372;2023-02-11T19:01:28;44.75;;;19.05;;
36371;SDS011;22398;51.346;12.372;2023-02-11T19:06:33;38.33;;;17.88;;
36371;SDS011;22398;51.346;12.372;2023-02-11T19:11:38;39.33;;;17.42;;
36371;SDS011;22398;51.346;12.372;2023-02-11T19:16:57;38.72;;;17.17;;
36371;SDS011;22398;51.346;12.372;2023-02-11T19:22:02;48.08;;;17.95;;
36371;SDS011;22398;51.346;12.372;2023-02-11T19:27:10;41.65;;;18.30;;
36371;SDS011;22398;51.346;12.372;2023-02-11T19:32:15;41.90;;;18.33;;
36371;SDS011;22398;51.346;12.372;2023-02-11T19:37:19;49.25;;;19.83;;
36371;SDS011;22398;51.346;12.372;2023-02-11T19:42:22;41.00;;;18.42;;
36371;SDS011;22398;51.346;12.372;2023-02-11T19:47:29;42.90;;;18.25;;
36371;SDS011;22398;51.346;12.372;2023-02-11T19:52:33;41.42;;;17.85;;
36371;SDS011;22398;51.346;12.372;2023-02-11T19:57:39;45.63;;;18.88;;
36371;SDS011;22398;51.346;12.372;2023-02-11T20:02:44;41.13;;;18.95;;
36371;SDS011;22398;51.346;12.372;2023-02-11T20:07:48;46.50;;;19.20;;
36371;SDS011;22398;51.346;12.372;2023-02-11T20:12:51;44.50;;;19.63;;
36371;SDS011;22398;51.346;12.372;2023-02-11T20:17:56;39.67;;;18.30;;
36371;SDS011;22398;51.346;12.372;2023-02-11T20:22:59;50.10;;;18.37;;
36371;SDS011;22398;51.346;12.372;2023-02-11T20:28:03;48.05;;;18.67;;
36371;SDS011;22398;51.346;12.372;2023-02-11T20:33:08;41.83;;;17.80;;
36371;SDS011;22398;51.346;12.372;2023-02-11T20:38:11;47.07;;;19.60;;
36371;SDS011;22398;51.346;12.372;2023-02-11T20:43:15;53.42;;;19.92;;
36371;SDS011;22398;51.346;12.372;2023-02-11T20:48:20;40.13;;;18.08;;
36371;SDS011;22398;51.346;12.372;2023-02-11T20:53:24;40.33;;;18.50;;
36371;SDS011;22398;51.346;12.372;2023-02-11T20:58:27;45.33;;;17.88;;
36371;SDS011;22398;51.346;12.372;2023-02-11T21:03:32;42.47;;;18.67;;
36371;SDS011;22398;51.346;12.372;2023-02-11T21:08:36;41.10;;;17.00;;
36371;SDS011;22398;51.346;12.372;2023-02-11T21:13:40;41.80;;;18.85;;
36371;SDS011;22398;51.346;12.372;2023-02-11T21:18:46;44.05;;;18.25;;
36371;SDS011;22398;51.346;12.372;2023-02-11T21:23:50;42.63;;;18.92;;
36371;SDS011;22398;51.346;12.372;2023-02-11T21:28:54;42.58;;;18.40;;
36371;SDS011;22398;51.346;12.372;2023-02-11T21:34:00;45.95;;;19.88;;
36371;SDS011;22398;51.346;12.372;2023-02-11T21:39:03;43.20;;;17.55;;
36371;SDS011;22398;51.346;12.372;2023-02-11T21:44:07;47.03;;;18.50;;
36371;SDS011;22398;51.346;12.372;2023-02-11T21:49:12;42.53;;;18.48;;
36371;SDS011;22398;51.346;12.372;2023-02-11T21:54:15;45.58;;;19.92;;
36371;SDS011;22398;51.346;12.372;2023-02-11T21:59:19;48.15;;;18.98;;
36371;SDS011;22398;51.346;12.372;2023-02-11T22:04:24;47.60;;;20.08;;
36371;SDS011;22398;51.346;12.372;2023-02-11T22:09:28;45.22;;;18.88;;
36371;SDS011;22398;51.346;12.372;2023-02-11T22:14:31;44.25;;;16.50;;
36371;SDS011;22398;51.346;12.372;2023-02-11T22:19:36;40.63;;;17.60;;
36371;SDS011;22398;51.346;12.372;2023-02-11T22:24:39;41.03;;;18.57;;
36371;SDS011;22398;51.346;12.372;2023-02-11T22:29:43;52.97;;;20.05;;
36371;SDS011;22398;51.346;12.372;2023-02-11T22:34:48;45.88;;;18.63;;
36371;SDS011;22398;51.346;12.372;2023-02-11T22:39:53;46.33;;;19.38;;
36371;SDS011;22398;51.346;12.372;2023-02-11T22:44:57;46.05;;;18.40;;
36371;SDS011;22398;51.346;12.372;2023-02-11T22:50:01;47.58;;;19.23;;
36371;SDS011;22398;51.346;12.372;2023-02-11T22:55:05;56.47;;;21.35;;
36371;SDS011;22398;51.346;12.372;2023-02-11T23:00:09;47.40;;;19.10;;
36371;SDS011;22398;51.346;12.372;2023-02-11T23:05:15;52.75;;;20.73;;
36371;SDS011;22398;51.346;12.372;2023-02-11T23:10:18;41.60;;;18.67;;
36371;SDS011;22398;51.346;12.372;2023-02-11T23:15:23;45.92;;;18.90;;
36371;SDS011;22398;51.346;12.372;2023-02-11T23:20:27;54.05;;;20.50;;
36371;SDS011;22398;51.346;12.372;2023-02-11T23:25:31;42.08;;;19.85;;
36371;SDS011;22398;51.346;12.372;2023-02-11T23:30:34;50.45;;;20.77;;
36371;SDS011;22398;51.346;12.372;2023-02-11T23:35:39;46.22;;;18.92;;
36371;SDS011;22398;51.346;12.372;2023-02-11T23:40:43;43.28;;;19.05;;
36371;SDS011;22398;51.346;12.372;2023-02-11T23:45:46;48.63;;;19.08;;
36371;SDS011;22398;51.346;12.372;2023-02-11T23:50:51;48.83;;;19.15;;
36371;SDS011;22398;51.346;12.372;2023-02-11T23:55:55;38.95;;;17.83;;
